createdAt,value
2017-10-08T00:01:10.692Z,2.30
2017-10-08T00:03:37.389Z,2.80
2017-10-08T00:06:04.092Z,1.97
2017-10-08T00:08:30.818Z,2.27
2017-10-08T00:10:57.571Z,2.60
2017-10-08T00:13:24.274Z,2.27
2017-10-08T00:15:51.054Z,2.60
2017-10-08T00:18:17.817Z,2.43
2017-10-08T00:20:44.545Z,1.83
2017-10-08T00:23:11.296Z,2.10
2017-10-08T00:25:38.018Z,2.17
2017-10-08T00:28:04.714Z,2.20
2017-10-08T00:30:31.441Z,3.07
2017-10-08T00:32:58.145Z,2.70
2017-10-08T00:35:24.856Z,2.67
2017-10-08T00:37:51.598Z,2.30
2017-10-08T00:40:18.337Z,2.23
2017-10-08T00:42:45.066Z,2.10
2017-10-08T00:45:11.819Z,2.60
2017-10-08T00:47:38.547Z,2.83
2017-10-08T00:50:05.267Z,2.50
2017-10-08T00:52:32.037Z,3.07
2017-10-08T00:54:58.749Z,2.93
2017-10-08T00:57:25.476Z,3.40
2017-10-08T00:59:52.249Z,2.40
2017-10-08T01:02:18.945Z,2.93
2017-10-08T01:04:45.656Z,2.73
2017-10-08T01:07:12.448Z,2.73
2017-10-08T01:09:39.178Z,2.63
2017-10-08T01:12:05.915Z,3.27
2017-10-08T01:14:32.665Z,2.90
2017-10-08T01:16:59.459Z,2.77
2017-10-08T01:19:26.186Z,3.60
2017-10-08T01:21:52.945Z,3.30
2017-10-08T01:24:19.679Z,3.60
2017-10-08T01:26:46.452Z,3.23
2017-10-08T01:29:13.198Z,3.23
2017-10-08T01:31:39.927Z,3.37
2017-10-08T01:34:06.666Z,3.30
2017-10-08T01:36:33.481Z,3.37
2017-10-08T01:39:00.215Z,3.27
2017-10-08T01:41:26.974Z,3.17
2017-10-08T01:43:53.734Z,2.97
2017-10-08T01:46:20.450Z,3.30
2017-10-08T01:48:47.172Z,3.10
2017-10-08T01:51:13.958Z,3.20
2017-10-08T01:53:40.687Z,3.70
2017-10-08T01:56:07.437Z,3.20
2017-10-08T01:58:34.253Z,3.77
2017-10-08T02:01:00.973Z,2.90
2017-10-08T02:03:27.686Z,3.63
2017-10-08T02:05:54.438Z,3.90
2017-10-08T02:08:21.150Z,3.40
2017-10-08T02:10:47.898Z,3.40
2017-10-08T02:13:14.729Z,3.63
2017-10-08T02:15:41.426Z,3.00
2017-10-08T02:18:08.122Z,3.10
2017-10-08T02:20:34.883Z,3.30
2017-10-08T02:23:01.679Z,2.83
2017-10-08T02:25:28.383Z,3.63
2017-10-08T02:27:55.116Z,2.93
2017-10-08T02:30:21.899Z,3.37
2017-10-08T02:32:48.629Z,3.30
2017-10-08T02:35:15.378Z,2.90
2017-10-08T02:37:42.111Z,3.07
2017-10-08T02:40:08.926Z,3.60
2017-10-08T02:42:35.650Z,2.83
2017-10-08T02:45:02.349Z,3.53
2017-10-08T02:47:29.079Z,3.10
2017-10-08T02:49:55.888Z,3.00
2017-10-08T02:52:22.603Z,3.10
2017-10-08T02:54:49.302Z,3.40
2017-10-08T02:57:16.114Z,3.37
2017-10-08T02:59:42.803Z,2.77
2017-10-08T03:02:09.575Z,4.20
2017-10-08T03:04:36.331Z,3.47
2017-10-08T03:07:03.124Z,3.20
2017-10-08T03:09:29.824Z,3.73
2017-10-08T03:11:56.538Z,3.40
2017-10-08T03:14:23.267Z,3.53
2017-10-08T03:16:50.043Z,3.60
2017-10-08T03:19:16.823Z,3.73
2017-10-08T03:21:43.538Z,2.93
2017-10-08T03:24:10.262Z,3.37
2017-10-08T03:26:36.975Z,3.27
2017-10-08T03:29:03.684Z,3.30
2017-10-08T03:31:30.506Z,3.90
2017-10-08T03:33:57.241Z,4.00
2017-10-08T03:36:23.945Z,3.00
2017-10-08T03:38:50.641Z,2.77
2017-10-08T03:41:17.367Z,4.17
2017-10-08T03:43:44.066Z,3.40
2017-10-08T03:46:10.788Z,3.70
2017-10-08T03:48:37.502Z,3.90
2017-10-08T03:51:04.203Z,3.80
2017-10-08T03:53:30.991Z,3.50
2017-10-08T03:55:57.756Z,2.73
2017-10-08T03:58:24.572Z,4.10
2017-10-08T04:00:51.291Z,3.40
2017-10-08T04:03:18.042Z,3.20
2017-10-08T04:05:44.743Z,3.20
2017-10-08T04:08:11.449Z,4.10
2017-10-08T04:10:38.169Z,3.67
2017-10-08T04:13:04.907Z,3.50
2017-10-08T04:15:31.643Z,3.67
2017-10-08T04:17:58.398Z,3.73
2017-10-08T04:20:25.087Z,3.20
2017-10-08T04:22:51.845Z,3.87
2017-10-08T04:25:18.566Z,3.43
2017-10-08T04:27:45.266Z,3.63
2017-10-08T04:30:11.965Z,2.73
2017-10-08T04:32:38.671Z,3.30
2017-10-08T04:35:05.367Z,3.77
2017-10-08T04:37:32.063Z,3.07
2017-10-08T04:39:58.802Z,3.53
2017-10-08T04:42:25.518Z,2.90
2017-10-08T04:44:52.231Z,3.33
2017-10-08T04:47:18.949Z,3.13
2017-10-08T04:49:45.642Z,2.60
2017-10-08T04:52:12.342Z,3.20
2017-10-08T04:54:39.082Z,3.10
2017-10-08T04:57:05.771Z,3.33
2017-10-08T04:59:32.464Z,3.20
2017-10-08T05:01:59.202Z,3.40
2017-10-08T05:04:25.930Z,3.13
2017-10-08T05:06:52.635Z,3.40
2017-10-08T05:09:19.345Z,4.47
2017-10-08T05:11:46.049Z,3.97
2017-10-08T05:14:12.770Z,3.70
2017-10-08T05:16:39.515Z,4.00
2017-10-08T05:19:06.207Z,4.00
2017-10-08T05:21:32.902Z,3.60
2017-10-08T05:23:59.642Z,3.83
2017-10-08T05:26:26.334Z,3.93
2017-10-08T05:28:53.106Z,3.10
2017-10-08T05:31:19.820Z,3.90
2017-10-08T05:33:46.529Z,2.53
2017-10-08T05:36:13.303Z,2.73
2017-10-08T05:38:40.118Z,2.80
2017-10-08T05:41:06.812Z,3.30
2017-10-08T05:43:33.509Z,2.73
2017-10-08T05:46:00.224Z,2.90
2017-10-08T05:48:26.927Z,3.00
2017-10-08T05:50:53.710Z,3.20
2017-10-08T05:53:20.482Z,3.60
2017-10-08T05:55:47.270Z,3.67
2017-10-08T05:58:13.966Z,3.67
2017-10-08T06:00:40.682Z,3.43
2017-10-08T06:03:07.377Z,3.97
2017-10-08T06:05:34.077Z,3.30
2017-10-08T06:08:00.823Z,3.30
2017-10-08T06:10:27.617Z,3.77
2017-10-08T06:12:54.321Z,3.00
2017-10-08T06:15:21.151Z,4.00
2017-10-08T06:17:47.892Z,3.00
2017-10-08T06:20:14.602Z,4.03
2017-10-08T06:22:41.333Z,3.37
2017-10-08T06:25:08.024Z,3.10
2017-10-08T06:27:34.731Z,3.00
2017-10-08T06:30:01.461Z,3.90
2017-10-08T06:32:28.167Z,4.50
2017-10-08T06:34:54.869Z,3.83
2017-10-08T06:37:21.579Z,3.50
2017-10-08T06:39:48.272Z,3.80
2017-10-08T06:42:14.962Z,3.60
2017-10-08T06:44:41.691Z,3.93
2017-10-08T06:47:08.381Z,3.60
2017-10-08T06:49:35.078Z,4.30
2017-10-08T06:52:01.814Z,4.50
2017-10-08T06:54:28.504Z,4.60
2017-10-08T06:56:55.200Z,4.17
2017-10-08T06:59:22.055Z,4.10
2017-10-08T07:01:48.848Z,4.40
2017-10-08T07:04:15.560Z,4.37
2017-10-08T07:06:42.275Z,5.60
2017-10-08T07:09:08.973Z,4.87
2017-10-08T07:11:35.696Z,5.60
2017-10-08T07:14:02.440Z,5.50
2017-10-08T07:16:29.148Z,6.33
2017-10-08T07:18:55.878Z,5.40
2017-10-08T07:21:22.671Z,5.40
2017-10-08T07:23:49.374Z,4.87
2017-10-08T07:26:16.228Z,5.07
2017-10-08T07:28:42.959Z,4.80
2017-10-08T07:31:09.708Z,4.47
2017-10-08T07:33:36.431Z,4.80
2017-10-08T07:36:03.236Z,5.77
2017-10-08T07:38:29.947Z,4.37
2017-10-08T07:40:56.698Z,5.77
2017-10-08T07:43:23.414Z,5.73
2017-10-08T07:45:50.194Z,5.60
2017-10-08T07:48:16.907Z,5.20
2017-10-08T07:50:43.675Z,5.30
2017-10-08T07:53:10.452Z,5.70
2017-10-08T07:55:37.165Z,5.57
2017-10-08T07:58:03.978Z,5.73
2017-10-08T08:00:30.770Z,6.10
2017-10-08T08:02:57.501Z,7.70
2017-10-08T08:05:24.240Z,5.33
2017-10-08T08:07:50.943Z,5.60
2017-10-08T08:10:17.634Z,5.80
2017-10-08T08:12:44.402Z,5.10
2017-10-08T08:15:11.763Z,6.33
2017-10-08T08:17:38.557Z,6.20
2017-10-08T08:20:15.780Z,5.60
2017-10-08T08:22:43.027Z,6.33
2017-10-08T08:25:09.732Z,5.90
2017-10-08T08:27:36.483Z,6.10
2017-10-08T08:30:03.215Z,6.10
2017-10-08T08:32:29.944Z,7.10
2017-10-08T08:34:56.686Z,6.90
2017-10-08T08:37:23.387Z,6.80
2017-10-08T08:39:50.075Z,6.57
2017-10-08T08:42:16.846Z,7.33
2017-10-08T08:44:43.571Z,6.43
2017-10-08T08:47:10.286Z,7.47
2017-10-08T08:49:37.014Z,7.27
2017-10-08T08:52:03.739Z,6.70
2017-10-08T08:54:30.605Z,5.00
2017-10-08T08:56:57.356Z,8.00
2017-10-08T08:59:24.067Z,6.33
2017-10-08T09:01:50.761Z,4.67
2017-10-08T09:04:17.493Z,4.87
2017-10-08T09:06:44.236Z,5.40
2017-10-08T09:09:10.966Z,4.93
2017-10-08T09:11:37.816Z,4.50
2017-10-08T09:14:04.610Z,5.37
2017-10-08T09:16:31.312Z,5.23
2017-10-08T09:18:58.043Z,4.60
2017-10-08T09:21:24.786Z,4.70
2017-10-08T09:23:51.478Z,5.73
2017-10-08T09:26:18.285Z,5.23
2017-10-08T09:28:45.000Z,4.90
2017-10-08T09:31:11.711Z,4.20
2017-10-08T09:33:38.467Z,4.37
2017-10-08T09:36:05.189Z,3.70
2017-10-08T09:38:31.912Z,4.00
2017-10-08T09:40:58.650Z,3.50
2017-10-08T09:43:25.365Z,3.77
2017-10-08T09:45:52.207Z,3.90
2017-10-08T09:48:18.952Z,4.00
2017-10-08T09:50:45.657Z,3.70
2017-10-08T09:53:12.432Z,3.77
2017-10-08T09:55:39.250Z,3.90
2017-10-08T09:58:05.949Z,4.23
2017-10-08T10:00:32.646Z,4.13
2017-10-08T10:02:59.367Z,3.37
2017-10-08T10:05:26.054Z,3.47
2017-10-08T10:07:52.749Z,3.70
2017-10-08T10:10:19.462Z,3.90
2017-10-08T10:12:46.159Z,3.63
2017-10-08T10:15:12.866Z,3.57
2017-10-08T10:17:39.613Z,3.90
2017-10-08T10:20:06.334Z,3.00
2017-10-08T10:22:33.030Z,2.83
2017-10-08T10:24:59.756Z,2.60
2017-10-08T10:27:26.451Z,2.83
2017-10-08T10:30:08.062Z,2.90
2017-10-08T10:32:35.330Z,2.57
2017-10-08T10:35:02.035Z,2.60
2017-10-08T10:37:28.745Z,2.60
2017-10-08T10:39:55.449Z,3.13
2017-10-08T10:42:22.154Z,2.33
2017-10-08T10:44:48.900Z,2.97
2017-10-08T10:47:15.586Z,1.83
2017-10-08T10:49:42.282Z,1.80
2017-10-08T10:52:08.990Z,1.70
2017-10-08T10:54:35.678Z,1.80
2017-10-08T10:57:02.374Z,2.17
2017-10-08T10:59:29.089Z,1.37
2017-10-08T11:01:55.826Z,1.60
2017-10-08T11:04:22.514Z,2.30
2017-10-08T11:06:49.246Z,1.63
2017-10-08T11:09:15.967Z,1.57
2017-10-08T11:11:42.677Z,1.70
2017-10-08T11:14:09.411Z,1.77
2017-10-08T11:16:36.101Z,2.00
2017-10-08T11:19:02.803Z,2.23
2017-10-08T11:21:29.540Z,2.23
2017-10-08T11:23:56.245Z,2.20
2017-10-08T11:26:22.970Z,1.90
2017-10-08T11:28:49.733Z,2.00
2017-10-08T11:31:16.441Z,2.10
2017-10-08T11:33:43.130Z,1.80
2017-10-08T11:36:10.755Z,2.00
2017-10-08T11:38:37.458Z,2.20
2017-10-08T11:41:04.172Z,1.97
2017-10-08T11:43:30.902Z,1.50
2017-10-08T11:45:57.602Z,1.77
2017-10-08T11:48:24.306Z,1.73
2017-10-08T11:50:51.062Z,1.70
2017-10-08T11:53:17.760Z,1.43
2017-10-08T11:55:44.458Z,1.23
2017-10-08T11:58:11.209Z,1.43
2017-10-08T12:00:37.920Z,1.20
2017-10-08T12:03:04.629Z,1.63
2017-10-08T12:05:31.429Z,1.37
2017-10-08T12:07:58.135Z,1.50
2017-10-08T12:10:24.848Z,1.50
2017-10-08T12:12:51.586Z,1.47
2017-10-08T12:15:18.302Z,1.63
2017-10-08T12:17:44.994Z,1.60
2017-10-08T12:20:11.709Z,1.60
2017-10-08T12:22:38.431Z,1.40
2017-10-08T12:25:05.134Z,1.73
2017-10-08T12:27:31.865Z,1.20
2017-10-08T12:29:58.553Z,1.20
2017-10-08T12:32:25.255Z,1.10
2017-10-08T12:34:51.980Z,0.90
2017-10-08T12:37:18.671Z,1.30
2017-10-08T12:39:45.380Z,1.20
2017-10-08T12:42:12.110Z,1.30
2017-10-08T12:44:38.814Z,1.20
2017-10-08T12:47:05.526Z,1.80
2017-10-08T12:49:32.277Z,1.83
2017-10-08T12:51:58.980Z,1.53
2017-10-08T12:54:25.712Z,1.80
2017-10-08T12:56:52.452Z,1.67
2017-10-08T12:59:19.146Z,2.20
2017-10-08T13:01:45.850Z,1.50
2017-10-08T13:04:12.569Z,1.47
2017-10-08T13:06:39.275Z,2.00
2017-10-08T13:09:05.982Z,1.80
2017-10-08T13:11:32.715Z,1.77
2017-10-08T13:13:59.412Z,1.60
2017-10-08T13:16:26.115Z,1.70
2017-10-08T13:18:52.858Z,1.70
2017-10-08T13:21:19.571Z,1.73
2017-10-08T13:23:46.261Z,1.93
2017-10-08T13:26:12.985Z,1.93
2017-10-08T13:28:39.726Z,2.00
2017-10-08T13:31:06.451Z,2.00
2017-10-08T13:33:33.185Z,1.67
2017-10-08T13:35:59.884Z,1.60
2017-10-08T13:38:26.568Z,1.30
2017-10-08T13:40:53.303Z,2.33
2017-10-08T13:43:20.002Z,2.00
2017-10-08T13:45:46.701Z,1.87
2017-10-08T13:48:13.422Z,1.43
2017-10-08T13:50:40.118Z,1.50
2017-10-08T13:53:06.811Z,1.13
2017-10-08T13:55:33.554Z,0.87
2017-10-08T13:58:00.269Z,1.53
2017-10-08T14:00:26.985Z,1.40
2017-10-08T14:02:53.739Z,1.43
2017-10-08T14:05:20.443Z,1.10
2017-10-08T14:07:47.139Z,1.37
2017-10-08T14:10:13.885Z,1.30
2017-10-08T14:12:40.604Z,1.30
2017-10-08T14:15:07.297Z,1.13
2017-10-08T14:17:34.029Z,1.30
2017-10-08T14:20:00.745Z,1.20
2017-10-08T14:22:27.431Z,1.50
2017-10-08T14:24:54.157Z,1.50
2017-10-08T14:27:20.859Z,1.50
2017-10-08T14:29:47.561Z,1.50
2017-10-08T14:32:14.311Z,1.67
2017-10-08T14:34:41.038Z,1.33
2017-10-08T14:37:07.758Z,1.20
2017-10-08T14:39:34.506Z,1.70
2017-10-08T14:42:01.204Z,1.80
2017-10-08T14:44:27.910Z,1.30
2017-10-08T14:46:54.640Z,1.40
2017-10-08T14:49:21.354Z,1.30
2017-10-08T14:51:48.049Z,1.30
2017-10-08T14:54:14.773Z,1.70
2017-10-08T14:56:41.534Z,1.20
2017-10-08T14:59:08.261Z,1.90
2017-10-08T15:01:34.996Z,1.30
2017-10-08T15:04:01.723Z,1.40
2017-10-08T15:06:28.439Z,1.97
2017-10-08T15:08:55.207Z,1.43
2017-10-08T15:11:21.935Z,1.70
2017-10-08T15:13:48.694Z,1.40
2017-10-08T15:16:15.452Z,1.70
2017-10-08T15:18:42.207Z,1.43
2017-10-08T15:21:08.995Z,1.37
2017-10-08T15:23:35.767Z,1.50
2017-10-08T15:26:02.487Z,2.00
2017-10-08T15:28:29.219Z,1.50
2017-10-08T15:30:55.993Z,1.13
2017-10-08T15:33:22.719Z,1.50
2017-10-08T15:35:49.424Z,1.80
2017-10-08T15:38:16.139Z,1.80
2017-10-08T15:40:42.838Z,1.60
2017-10-08T15:43:09.527Z,1.23
2017-10-08T15:45:36.312Z,1.87
2017-10-08T15:48:03.052Z,1.70
2017-10-08T15:50:29.807Z,2.20
2017-10-08T15:52:56.543Z,1.90
2017-10-08T15:55:23.263Z,1.57
2017-10-08T15:57:49.978Z,1.40
2017-10-08T16:00:16.709Z,1.70
2017-10-08T16:02:43.405Z,1.30
2017-10-08T16:05:10.102Z,3.00
2017-10-08T16:07:36.835Z,1.80
2017-10-08T16:10:03.538Z,1.73
2017-10-08T16:12:30.241Z,1.90
2017-10-08T16:14:56.959Z,1.67
2017-10-08T16:17:23.691Z,1.80
2017-10-08T16:19:50.405Z,1.63
2017-10-08T16:22:17.185Z,1.60
2017-10-08T16:24:43.872Z,2.10
2017-10-08T16:27:10.572Z,2.20
2017-10-08T16:29:37.313Z,1.50
2017-10-08T16:32:04.055Z,2.07
2017-10-08T16:34:30.781Z,2.60
2017-10-08T16:36:57.528Z,2.10
2017-10-08T16:39:24.222Z,1.93
2017-10-08T16:41:50.935Z,2.20
2017-10-08T16:44:17.744Z,2.40
2017-10-08T16:46:44.482Z,2.83
2017-10-08T16:49:11.194Z,2.13
2017-10-08T16:51:37.932Z,2.47
2017-10-08T16:54:04.684Z,3.10
2017-10-08T16:56:31.402Z,2.47
2017-10-08T16:58:58.191Z,1.90
2017-10-08T17:01:24.888Z,1.63
2017-10-08T17:03:51.610Z,1.60
2017-10-08T17:06:18.415Z,1.67
2017-10-08T17:08:45.199Z,1.30
2017-10-08T17:11:11.990Z,1.30
2017-10-08T17:13:38.701Z,1.30
2017-10-08T17:16:05.402Z,1.93
2017-10-08T17:18:32.109Z,1.40
2017-10-08T17:20:58.847Z,1.60
2017-10-08T17:23:25.546Z,8.37
2017-10-08T17:25:52.257Z,14.27
2017-10-08T17:28:19.007Z,14.00
2017-10-08T17:30:45.723Z,14.87
2017-10-08T17:33:12.439Z,13.63
2017-10-08T17:35:39.169Z,12.73
2017-10-08T17:38:05.901Z,12.60
2017-10-08T17:40:32.611Z,10.40
2017-10-08T17:42:59.330Z,3.10
2017-10-08T17:45:26.030Z,2.37
2017-10-08T17:47:52.732Z,4.33
2017-10-08T17:50:19.469Z,2.90
2017-10-08T17:52:46.174Z,2.07
2017-10-08T17:55:12.908Z,2.60
2017-10-08T17:57:39.664Z,2.20
2017-10-08T18:00:06.367Z,1.00
2017-10-08T18:02:33.062Z,1.03
2017-10-08T18:04:59.842Z,1.50
2017-10-08T18:07:26.583Z,0.93
2017-10-08T18:09:53.337Z,6.47
2017-10-08T18:12:20.089Z,0.97
2017-10-08T18:14:46.917Z,0.83
2017-10-08T18:17:13.675Z,0.80
2017-10-08T18:19:40.479Z,0.70
2017-10-08T18:22:07.188Z,0.80
2017-10-08T18:24:33.943Z,0.90
2017-10-08T18:27:00.732Z,0.50
2017-10-08T18:29:27.481Z,0.83
2017-10-08T18:31:54.194Z,0.67
2017-10-08T18:34:21.029Z,0.60
2017-10-08T18:36:47.766Z,0.77
2017-10-08T18:39:14.479Z,1.10
2017-10-08T18:41:41.338Z,0.70
2017-10-08T18:44:08.054Z,0.87
2017-10-08T18:46:34.816Z,0.73
2017-10-08T18:49:01.862Z,1.00
2017-10-08T18:51:28.900Z,1.40
2017-10-08T18:53:55.944Z,1.67
2017-10-08T18:56:23.016Z,2.57
2017-10-08T18:58:49.798Z,1.87
2017-10-08T19:01:16.595Z,2.17
2017-10-08T19:03:43.374Z,2.27
2017-10-08T19:06:10.364Z,2.47
2017-10-08T19:08:37.372Z,2.00
2017-10-08T19:11:04.455Z,1.60
2017-10-08T19:13:31.436Z,1.90
2017-10-08T19:15:58.456Z,1.93
2017-10-08T19:18:25.504Z,1.57
2017-10-08T19:20:52.541Z,1.17
2017-10-08T19:23:19.579Z,1.10
2017-10-08T19:25:46.674Z,1.17
2017-10-08T19:28:13.708Z,1.03
2017-10-08T19:30:40.730Z,1.37
2017-10-08T19:33:07.770Z,1.20
2017-10-08T19:35:34.827Z,1.20
2017-10-08T19:38:01.664Z,1.10
2017-10-08T19:40:28.680Z,0.77
2017-10-08T19:42:55.596Z,0.90
2017-10-08T19:45:22.481Z,0.83
2017-10-08T19:47:49.530Z,0.67
2017-10-08T19:50:16.307Z,0.90
2017-10-08T19:52:43.279Z,1.40
2017-10-08T19:55:10.319Z,1.07
2017-10-08T19:57:37.339Z,0.87
2017-10-08T20:00:04.409Z,0.90
2017-10-08T20:02:31.450Z,0.97
2017-10-08T20:04:58.472Z,1.00
2017-10-08T20:07:25.220Z,0.90
2017-10-08T20:09:51.948Z,0.73
2017-10-08T20:12:18.662Z,0.90
2017-10-08T20:14:45.362Z,0.60
2017-10-08T20:17:12.136Z,1.03
2017-10-08T20:19:38.855Z,0.70
2017-10-08T20:22:05.565Z,0.67
2017-10-08T20:24:32.300Z,0.47
2017-10-08T20:26:59.010Z,2.80
2017-10-08T20:29:25.803Z,0.87
2017-10-08T20:31:52.555Z,0.90
2017-10-08T20:34:19.289Z,0.70
2017-10-08T20:36:46.019Z,0.67
2017-10-08T20:39:12.769Z,0.90
2017-10-08T20:41:39.457Z,1.00
2017-10-08T20:44:06.170Z,1.03
2017-10-08T20:46:32.912Z,0.77
2017-10-08T20:48:59.679Z,0.87
2017-10-08T20:51:26.391Z,0.80
2017-10-08T20:53:53.124Z,1.67
2017-10-08T20:56:19.823Z,4.37
2017-10-08T20:58:46.525Z,4.43
2017-10-08T21:01:13.256Z,5.70
2017-10-08T21:03:39.966Z,5.63
2017-10-08T21:06:06.679Z,4.70
2017-10-08T21:08:33.413Z,3.47
2017-10-08T21:11:00.165Z,2.20
2017-10-08T21:13:26.856Z,3.13
2017-10-08T21:15:53.604Z,3.43
2017-10-08T21:18:20.387Z,3.20
2017-10-08T21:20:47.077Z,3.33
2017-10-08T21:23:13.858Z,3.17
2017-10-08T21:25:40.582Z,3.03
2017-10-08T21:28:07.287Z,3.37
2017-10-08T21:30:34.040Z,2.87
2017-10-08T21:33:01.099Z,2.60
2017-10-08T21:35:27.968Z,1.90
2017-10-08T21:37:54.694Z,2.33
2017-10-08T21:40:21.421Z,3.63
2017-10-08T21:42:48.120Z,2.43
2017-10-08T21:45:14.844Z,2.70
2017-10-08T21:47:41.547Z,1.83
2017-10-08T21:50:08.244Z,1.90
2017-10-08T21:52:34.999Z,1.53
2017-10-08T21:55:01.696Z,1.80
2017-10-08T21:57:28.417Z,1.70
2017-10-08T21:59:55.137Z,1.47
2017-10-08T22:02:21.854Z,1.60
2017-10-08T22:04:48.716Z,1.90
2017-10-08T22:07:15.465Z,1.53
2017-10-08T22:09:42.174Z,2.03
2017-10-08T22:12:08.873Z,1.80
2017-10-08T22:14:35.591Z,1.80
2017-10-08T22:17:02.289Z,1.70
2017-10-08T22:19:28.984Z,1.53
2017-10-08T22:21:55.731Z,1.83
2017-10-08T22:24:22.450Z,1.60
2017-10-08T22:26:49.138Z,1.50
2017-10-08T22:29:15.867Z,0.87
2017-10-08T22:31:42.567Z,1.23
2017-10-08T22:34:09.266Z,1.10
2017-10-08T22:36:35.980Z,1.27
2017-10-08T22:39:02.712Z,1.20
2017-10-08T22:41:29.426Z,1.27
2017-10-08T22:43:56.152Z,1.83
2017-10-08T22:46:22.841Z,1.70
2017-10-08T22:48:49.548Z,1.57
2017-10-08T22:51:16.272Z,2.40
2017-10-08T22:53:42.999Z,2.03
2017-10-08T22:56:09.690Z,2.20
2017-10-08T22:58:36.429Z,1.87
2017-10-08T23:01:03.141Z,1.57
2017-10-08T23:03:29.850Z,1.90
2017-10-08T23:05:56.565Z,1.47
2017-10-08T23:08:23.258Z,1.03
2017-10-08T23:10:49.951Z,1.10
2017-10-08T23:13:16.696Z,1.43
2017-10-08T23:15:43.385Z,1.20
2017-10-08T23:18:10.082Z,1.23
2017-10-08T23:20:36.802Z,1.80
2017-10-08T23:23:03.505Z,1.30
2017-10-08T23:25:30.190Z,1.53
2017-10-08T23:27:56.912Z,1.53
2017-10-08T23:30:23.627Z,1.70
2017-10-08T23:32:50.417Z,1.50
2017-10-08T23:35:17.287Z,1.57
2017-10-08T23:37:44.012Z,1.50
2017-10-08T23:40:10.711Z,1.73
2017-10-08T23:42:37.445Z,1.50
2017-10-08T23:45:04.190Z,1.57
2017-10-08T23:47:30.892Z,1.30
2017-10-08T23:49:57.611Z,1.63
2017-10-08T23:52:24.311Z,1.20
2017-10-08T23:54:51.025Z,1.83
2017-10-08T23:57:17.786Z,1.40
2017-10-08T23:59:44.478Z,1.83
